createdAt,value
2019-03-06T00:02:02.604Z,95443.97
2019-03-06T00:05:10.744Z,95444.08
2019-03-06T00:07:59.502Z,95448.80
2019-03-06T00:10:48.317Z,95449.13
2019-03-06T00:13:37.081Z,95443.39
2019-03-06T00:16:25.860Z,95438.90
2019-03-06T00:19:14.695Z,95374.19
2019-03-06T00:22:03.474Z,95361.31
2019-03-06T00:24:52.238Z,95387.94
2019-03-06T00:27:41.017Z,95359.48
2019-03-06T00:30:29.780Z,95434.85
2019-03-06T00:33:18.567Z,95430.18
2019-03-06T00:39:16.787Z,95339.36
2019-03-06T00:42:26.331Z,95408.12
2019-03-06T00:45:15.163Z,95412.94
2019-03-06T00:48:03.945Z,95347.39
2019-03-06T00:50:52.708Z,95413.53
2019-03-06T00:53:41.464Z,95335.20
2019-03-06T00:56:30.232Z,95369.05
2019-03-06T00:59:19.050Z,95407.30
2019-03-06T01:02:00.758Z,95390.61
2019-03-06T01:04:49.534Z,95402.50
2019-03-06T01:07:38.328Z,95392.84
2019-03-06T01:10:27.096Z,95393.97
2019-03-06T01:13:15.870Z,95388.17
2019-03-06T01:16:04.704Z,95383.75
2019-03-06T01:18:53.486Z,95383.90
2019-03-06T01:21:42.251Z,95382.23
2019-03-06T01:24:31.034Z,95341.42
2019-03-06T01:27:19.802Z,95377.13
2019-03-06T01:30:29.490Z,95331.08
2019-03-06T01:36:11.846Z,95369.98
2019-03-06T01:39:19.653Z,95368.31
2019-03-06T01:42:27.445Z,95361.26
2019-03-06T01:45:16.220Z,95355.66
2019-03-06T01:48:05.212Z,95351.59
2019-03-06T01:50:53.995Z,95351.83
2019-03-06T01:53:42.790Z,95350.88
2019-03-06T01:56:31.549Z,95348.36
2019-03-06T01:59:00.990Z,95346.98
2019-03-06T02:01:30.751Z,95336.02
2019-03-06T02:04:00.204Z,95340.09
2019-03-06T02:06:29.622Z,95349.28
2019-03-06T02:08:59.092Z,95344.37
2019-03-06T02:11:28.485Z,95335.12
2019-03-06T02:13:57.992Z,95342.02
2019-03-06T02:16:27.700Z,95340.16
2019-03-06T02:18:57.145Z,95339.11
2019-03-06T02:21:27.206Z,95334.02
2019-03-06T02:23:56.647Z,95330.75
2019-03-06T02:26:26.071Z,95333.23
2019-03-06T02:28:55.504Z,95329.42
2019-03-06T02:31:24.928Z,95332.80
2019-03-06T02:33:54.367Z,95322.07
2019-03-06T02:36:23.782Z,95322.97
2019-03-06T02:38:53.222Z,95327.24
2019-03-06T02:41:22.724Z,95325.26
2019-03-06T02:43:52.224Z,95312.19
2019-03-06T02:46:21.639Z,95317.70
2019-03-06T02:48:51.081Z,95309.69
2019-03-06T02:51:20.497Z,95311.45
2019-03-06T02:53:50.202Z,95314.55
2019-03-06T02:56:19.626Z,95315.29
2019-03-06T02:58:59.644Z,95317.42
2019-03-06T03:01:45.544Z,95313.97
2019-03-06T03:04:19.394Z,95307.63
2019-03-06T03:06:50.447Z,95304.17
2019-03-06T03:09:20.742Z,95301.44
2019-03-06T03:11:50.163Z,95298.41
2019-03-06T03:14:19.601Z,95297.55
2019-03-06T03:16:49.032Z,95294.48
2019-03-06T03:19:18.468Z,95292.42
2019-03-06T03:21:47.967Z,95285.92
2019-03-06T03:24:17.384Z,95285.42
2019-03-06T03:26:46.812Z,95284.56
2019-03-06T03:29:16.240Z,95277.71
2019-03-06T03:31:45.730Z,95277.41
2019-03-06T03:34:15.155Z,95271.10
2019-03-06T03:36:44.629Z,95265.58
2019-03-06T03:39:14.062Z,95263.02
2019-03-06T03:41:43.501Z,95271.56
2019-03-06T03:44:12.920Z,95268.34
2019-03-06T03:46:42.359Z,95262.08
2019-03-06T03:49:11.766Z,95259.01
2019-03-06T03:51:41.198Z,95264.88
2019-03-06T03:54:10.629Z,95258.27
2019-03-06T03:56:40.071Z,95252.32
2019-03-06T03:59:09.504Z,95252.63
2019-03-06T04:01:39.235Z,95251.23
2019-03-06T04:04:08.694Z,95245.13
2019-03-06T04:06:38.091Z,95242.20
2019-03-06T04:09:07.695Z,95253.14
2019-03-06T04:11:37.132Z,95242.33
2019-03-06T04:14:06.622Z,95250.27
2019-03-06T04:16:36.043Z,95241.89
2019-03-06T04:19:05.534Z,95243.14
2019-03-06T04:21:34.961Z,95241.90
2019-03-06T04:24:04.386Z,95240.14
2019-03-06T04:26:33.817Z,95243.95
2019-03-06T04:29:03.246Z,95245.87
2019-03-06T04:31:32.715Z,95244.85
2019-03-06T04:34:02.145Z,95243.88
2019-03-06T04:36:31.566Z,95249.52
2019-03-06T04:39:00.996Z,95250.41
2019-03-06T04:41:30.420Z,95243.88
2019-03-06T04:43:59.843Z,95250.14
2019-03-06T04:46:29.276Z,95244.03
2019-03-06T04:48:58.697Z,95246.76
2019-03-06T04:51:28.124Z,95246.45
2019-03-06T04:53:57.540Z,95245.78
2019-03-06T04:56:26.961Z,95246.30
2019-03-06T04:58:56.390Z,95241.23
2019-03-06T05:01:25.816Z,95240.93
2019-03-06T05:03:55.240Z,95237.00
2019-03-06T05:06:24.668Z,95228.41
2019-03-06T05:08:54.104Z,95229.87
2019-03-06T05:11:23.525Z,95229.57
2019-03-06T05:13:52.970Z,95233.25
2019-03-06T05:16:24.038Z,95240.45
2019-03-06T05:18:55.346Z,95238.39
2019-03-06T05:21:24.765Z,95236.26
2019-03-06T05:23:54.207Z,95234.70
2019-03-06T05:26:23.651Z,95238.16
2019-03-06T05:28:53.361Z,95242.79
2019-03-06T05:31:22.792Z,95231.35
2019-03-06T05:33:52.292Z,95235.21
2019-03-06T05:36:26.417Z,95231.75
2019-03-06T05:39:09.306Z,95234.55
2019-03-06T05:41:38.958Z,95232.88
2019-03-06T05:44:08.394Z,95232.88
2019-03-06T05:46:37.815Z,95220.78
2019-03-06T05:49:07.530Z,95223.97
2019-03-06T05:51:36.958Z,95221.20
2019-03-06T05:54:08.418Z,95214.45
2019-03-06T05:56:37.869Z,95213.13
2019-03-06T05:59:07.308Z,95217.91
2019-03-06T06:01:36.797Z,95216.81
2019-03-06T06:04:06.275Z,95206.01
2019-03-06T06:06:35.699Z,95204.23
2019-03-06T06:09:06.856Z,95214.75
2019-03-06T06:11:36.280Z,95209.00
2019-03-06T06:14:05.797Z,95210.63
2019-03-06T06:16:35.242Z,95209.16
2019-03-06T06:19:04.762Z,95202.78
2019-03-06T06:21:35.820Z,95203.67
2019-03-06T06:24:06.936Z,95198.81
2019-03-06T06:26:36.365Z,95186.03
2019-03-06T06:29:05.790Z,95175.45
2019-03-06T06:31:35.222Z,95172.98
2019-03-06T06:34:04.645Z,95173.95
2019-03-06T06:36:34.359Z,95164.16
2019-03-06T06:39:04.730Z,95170.56
2019-03-06T06:41:34.162Z,95169.58
2019-03-06T06:44:03.626Z,95156.92
2019-03-06T06:46:33.039Z,95159.38
2019-03-06T06:49:03.628Z,95154.37
2019-03-06T06:52:07.491Z,95151.42
2019-03-06T06:54:58.266Z,95152.96
2019-03-06T06:58:10.084Z,95146.12
2019-03-06T07:00:57.705Z,95147.06
2019-03-06T07:03:56.220Z,95143.73
2019-03-06T07:06:27.300Z,95154.31
2019-03-06T07:09:04.092Z,95149.91
2019-03-06T07:11:50.462Z,95142.09
2019-03-06T07:14:37.551Z,95135.20
2019-03-06T07:17:11.624Z,95129.44
2019-03-06T07:19:45.177Z,95130.13
2019-03-06T07:22:16.323Z,95127.04
2019-03-06T07:24:49.949Z,95127.64
2019-03-06T07:27:21.022Z,95122.70
2019-03-06T07:29:52.080Z,95118.73
2019-03-06T07:32:28.952Z,95115.61
2019-03-06T07:35:53.113Z,95119.60
2019-03-06T07:38:22.817Z,95118.15
2019-03-06T07:40:56.337Z,95121.34
2019-03-06T07:43:43.457Z,95123.17
2019-03-06T07:46:24.762Z,95125.21
2019-03-06T07:49:08.627Z,95116.58
2019-03-06T07:51:51.490Z,95117.36
2019-03-06T07:54:20.707Z,95116.94
2019-03-06T07:56:54.280Z,95113.64
2019-03-06T07:59:43.047Z,95120.83
2019-03-06T08:03:10.514Z,95115.84
2019-03-06T08:05:59.288Z,95104.92
2019-03-06T08:08:48.081Z,95099.63
2019-03-06T08:15:05.284Z,95043.46
2019-03-06T08:17:53.801Z,95092.94
2019-03-06T08:26:51.205Z,95037.91
2019-03-06T08:29:20.631Z,95072.34
2019-03-06T08:35:18.785Z,95070.73
2019-03-06T08:38:07.585Z,95072.48
2019-03-06T08:41:03.889Z,95024.06
2019-03-06T08:43:46.887Z,95067.23
2019-03-06T08:46:31.569Z,95057.91
2019-03-06T08:49:39.339Z,95045.73
2019-03-06T08:52:47.172Z,95043.98
2019-03-06T08:55:54.977Z,95010.13
2019-03-06T08:58:54.155Z,95033.88
2019-03-06T09:01:37.671Z,95028.16
2019-03-06T09:04:15.990Z,95029.42
2019-03-06T09:06:50.810Z,95030.52
2019-03-06T09:09:32.131Z,95035.11
2019-03-06T09:12:07.658Z,95028.41
2019-03-06T09:14:56.881Z,95036.16
2019-03-06T09:17:43.150Z,95036.34
2019-03-06T09:20:37.132Z,95036.77
2019-03-06T09:23:23.126Z,95032.58
2019-03-06T09:26:08.065Z,95022.45
2019-03-06T09:28:37.397Z,95016.41
2019-03-06T09:31:14.734Z,95022.63
2019-03-06T09:33:48.304Z,95007.94
2019-03-06T09:36:35.697Z,95003.27
2019-03-06T09:39:22.413Z,94998.23
2019-03-06T09:41:59.261Z,94996.42
2019-03-06T09:44:42.440Z,94988.48
2019-03-06T09:47:13.615Z,94981.91
2019-03-06T09:49:55.145Z,94973.23
2019-03-06T09:52:42.274Z,94966.41
2019-03-06T09:55:20.524Z,94969.77
2019-03-06T09:57:55.476Z,94961.77
2019-03-06T10:00:32.840Z,94966.20
2019-03-06T10:03:15.719Z,94962.41
2019-03-06T10:06:02.223Z,94960.34
2019-03-06T10:08:34.371Z,94956.48
2019-03-06T10:11:17.279Z,94962.92
2019-03-06T10:13:47.150Z,94955.22
2019-03-06T10:16:18.409Z,94956.92
2019-03-06T10:18:49.504Z,94958.38
2019-03-06T10:21:19.438Z,94952.59
2019-03-06T10:23:49.074Z,94949.91
2019-03-06T10:26:18.987Z,94941.27
2019-03-06T10:28:48.470Z,94932.08
2019-03-06T10:31:18.317Z,94937.45
2019-03-06T10:33:47.751Z,94933.77
2019-03-06T10:36:17.264Z,94931.36
2019-03-06T10:38:46.773Z,94920.97
2019-03-06T10:41:16.465Z,94915.65
2019-03-06T10:46:17.215Z,94910.00
2019-03-06T10:48:48.358Z,94910.45
2019-03-06T10:51:18.185Z,94900.30
2019-03-06T10:53:47.806Z,94897.69
2019-03-06T10:56:17.533Z,94908.07
2019-03-06T10:58:47.551Z,94908.23
2019-03-06T11:01:17.477Z,94905.12
2019-03-06T11:04:00.346Z,94898.09
2019-03-06T11:06:29.883Z,94903.59
2019-03-06T11:08:59.435Z,94902.95
2019-03-06T11:11:29.391Z,94896.51
2019-03-06T11:14:06.018Z,94892.05
2019-03-06T11:16:33.204Z,94888.06
2019-03-06T11:19:01.580Z,94887.44
2019-03-06T11:21:31.045Z,94881.15
2019-03-06T11:24:00.578Z,94879.33
2019-03-06T11:26:31.282Z,94862.92
2019-03-06T11:29:00.993Z,94869.75
2019-03-06T11:31:30.640Z,94857.29
2019-03-06T11:34:00.256Z,94861.26
2019-03-06T11:36:29.692Z,94856.06
2019-03-06T11:38:59.215Z,94851.33
2019-03-06T11:41:28.847Z,94847.91
2019-03-06T11:43:58.582Z,94838.81
2019-03-06T11:46:28.230Z,94838.60
2019-03-06T11:48:57.688Z,94836.56
2019-03-06T11:51:27.222Z,94828.27
2019-03-06T11:53:56.696Z,94837.12
2019-03-06T11:56:26.581Z,94833.55
2019-03-06T11:58:56.361Z,94827.55
2019-03-06T12:01:26.216Z,94829.22
2019-03-06T12:03:56.355Z,94826.73
2019-03-06T12:06:25.915Z,94824.52
2019-03-06T12:08:55.457Z,94812.57
2019-03-06T12:11:25.507Z,94808.72
2019-03-06T12:13:54.996Z,94805.52
2019-03-06T12:16:24.585Z,94809.91
2019-03-06T12:18:54.109Z,94793.88
2019-03-06T12:21:23.624Z,94795.36
2019-03-06T12:23:53.129Z,94794.02
2019-03-06T12:26:22.624Z,94793.74
2019-03-06T12:28:52.121Z,94792.30
2019-03-06T12:31:21.593Z,94795.63
2019-03-06T12:33:51.145Z,94787.05
2019-03-06T12:36:20.681Z,94783.00
2019-03-06T12:38:50.262Z,94778.30
2019-03-06T12:41:19.882Z,94770.35
2019-03-06T12:43:49.521Z,94763.94
2019-03-06T12:46:23.780Z,94760.61
2019-03-06T12:48:58.725Z,94757.80
2019-03-06T12:51:28.725Z,94745.17
2019-03-06T12:53:58.201Z,94739.73
2019-03-06T12:56:27.805Z,94742.67
2019-03-06T12:58:57.364Z,94733.63
2019-03-06T13:01:26.856Z,94732.40
2019-03-06T13:03:56.312Z,94717.55
2019-03-06T13:06:26.035Z,94725.49
2019-03-06T13:08:56.397Z,94720.20
2019-03-06T13:11:26.141Z,94707.64
2019-03-06T13:13:55.750Z,94705.56
2019-03-06T13:16:25.566Z,94693.48
2019-03-06T13:18:55.042Z,94685.23
2019-03-06T13:21:24.704Z,94683.58
2019-03-06T13:23:54.303Z,94680.23
2019-03-06T13:26:23.770Z,94678.20
2019-03-06T13:28:57.335Z,94666.32
2019-03-06T13:31:24.404Z,94663.24
2019-03-06T13:33:55.841Z,94663.94
2019-03-06T13:36:25.384Z,94655.52
2019-03-06T13:39:03.188Z,94653.20
2019-03-06T13:41:26.125Z,94643.80
2019-03-06T13:43:55.593Z,94634.77
2019-03-06T13:46:25.094Z,94634.81
2019-03-06T13:48:54.615Z,94621.84
2019-03-06T13:51:24.185Z,94622.05
2019-03-06T13:53:53.667Z,94611.91
2019-03-06T13:56:23.235Z,94612.00
2019-03-06T13:58:52.710Z,94607.21
2019-03-06T14:01:22.211Z,94604.47
2019-03-06T14:03:51.849Z,94602.39
2019-03-06T14:06:21.389Z,94597.55
2019-03-06T14:08:50.846Z,94602.53
2019-03-06T14:11:20.539Z,94608.81
2019-03-06T14:13:50.048Z,94595.47
2019-03-06T14:16:20.696Z,94596.55
2019-03-06T14:18:50.286Z,94588.94
2019-03-06T14:21:19.814Z,94584.86
2019-03-06T14:23:49.397Z,94588.92
2019-03-06T14:26:19.227Z,94581.34
2019-03-06T14:28:48.745Z,94580.37
2019-03-06T14:31:18.284Z,94571.39
2019-03-06T14:33:47.775Z,94572.13
2019-03-06T14:36:17.377Z,94565.41
2019-03-06T14:38:46.818Z,94566.63
2019-03-06T14:41:16.367Z,94559.69
2019-03-06T14:43:45.840Z,94559.20
2019-03-06T14:46:16.821Z,94557.36
2019-03-06T14:48:47.216Z,94552.65
2019-03-06T14:51:16.673Z,94543.87
2019-03-06T14:53:46.309Z,94547.28
2019-03-06T14:56:15.773Z,94548.54
2019-03-06T14:58:45.615Z,94545.08
2019-03-06T15:01:15.153Z,94538.81
2019-03-06T15:03:46.079Z,94541.95
2019-03-06T15:06:15.604Z,94536.70
2019-03-06T15:08:45.096Z,94533.61
2019-03-06T15:11:14.791Z,94532.50
2019-03-06T15:13:44.286Z,94538.13
2019-03-06T15:16:14.166Z,94531.02
2019-03-06T15:18:43.688Z,94528.68
2019-03-06T15:21:13.298Z,94527.64
2019-03-06T15:23:42.827Z,94523.63
2019-03-06T15:26:12.661Z,94521.09
2019-03-06T15:28:42.142Z,94514.77
2019-03-06T15:31:12.097Z,94509.05
2019-03-06T15:33:41.587Z,94499.53
2019-03-06T15:36:11.137Z,94494.75
2019-03-06T15:38:40.629Z,94493.75
2019-03-06T15:41:10.165Z,94477.88
2019-03-06T15:43:39.727Z,94480.19
2019-03-06T15:46:09.185Z,94483.50
2019-03-06T15:48:38.719Z,94477.56
2019-03-06T15:51:08.324Z,94477.56
2019-03-06T15:53:38.153Z,94474.92
2019-03-06T15:56:07.735Z,94473.66
2019-03-06T15:58:37.671Z,94468.14
2019-03-06T16:01:07.412Z,94464.00
2019-03-06T16:03:36.883Z,94461.13
2019-03-06T16:06:07.583Z,94447.76
2019-03-06T16:08:37.060Z,94442.16
2019-03-06T16:11:08.230Z,94434.45
2019-03-06T16:13:37.802Z,94438.70
2019-03-06T16:16:07.446Z,94435.76
2019-03-06T16:18:36.952Z,94451.11
2019-03-06T16:21:07.533Z,94439.48
2019-03-06T16:23:37.007Z,94436.37
2019-03-06T16:26:06.458Z,94436.88
2019-03-06T16:28:35.943Z,94435.84
2019-03-06T16:31:05.832Z,94435.00
2019-03-06T16:33:35.377Z,94441.07
2019-03-06T16:36:05.940Z,94429.81
2019-03-06T16:38:35.478Z,94430.52
2019-03-06T16:41:05.117Z,94426.53
2019-03-06T16:43:34.653Z,94437.31
2019-03-06T16:46:10.109Z,94430.86
2019-03-06T16:48:39.611Z,94429.17
2019-03-06T16:51:10.383Z,94431.34
2019-03-06T16:53:39.861Z,94422.94
2019-03-06T16:56:09.403Z,94419.16
2019-03-06T16:58:38.997Z,94421.89
2019-03-06T17:01:08.722Z,94424.87
2019-03-06T17:03:38.417Z,94421.63
2019-03-06T17:06:08.300Z,94426.77
2019-03-06T17:08:37.775Z,94426.56
2019-03-06T17:11:07.719Z,94429.50
2019-03-06T17:13:37.262Z,94433.56
2019-03-06T17:16:06.964Z,94422.17
2019-03-06T17:18:36.430Z,94422.47
2019-03-06T17:21:06.025Z,94417.86
2019-03-06T17:23:35.553Z,94418.38
2019-03-06T17:26:05.278Z,94416.29
2019-03-06T17:28:35.192Z,94415.54
2019-03-06T17:31:05.208Z,94419.34
2019-03-06T17:33:34.849Z,94421.84
2019-03-06T17:36:04.458Z,94422.14
2019-03-06T17:38:33.926Z,94423.83
2019-03-06T17:41:04.279Z,94420.38
2019-03-06T17:43:34.108Z,94421.49
2019-03-06T17:46:04.280Z,94420.22
2019-03-06T17:48:33.789Z,94424.82
2019-03-06T17:51:06.510Z,94431.50
2019-03-06T17:53:36.020Z,94430.43
2019-03-06T17:56:05.782Z,94434.42
2019-03-06T17:58:35.296Z,94422.41
2019-03-06T18:01:06.621Z,94425.44
2019-03-06T18:03:40.391Z,94429.59
2019-03-06T18:06:09.951Z,94424.70
2019-03-06T18:08:39.718Z,94414.30
2019-03-06T18:11:09.720Z,94419.20
2019-03-06T18:13:39.297Z,94412.53
2019-03-06T18:16:08.881Z,94410.65
2019-03-06T18:18:38.383Z,94408.47
2019-03-06T18:21:07.926Z,94407.42
2019-03-06T18:23:37.396Z,94411.47
2019-03-06T18:26:06.903Z,94405.10
2019-03-06T18:28:36.375Z,94398.94
2019-03-06T18:31:05.936Z,94390.55
2019-03-06T18:33:35.404Z,94391.34
2019-03-06T18:36:06.781Z,94393.84
2019-03-06T18:38:36.243Z,94387.73
2019-03-06T18:41:05.923Z,94376.84
2019-03-06T18:43:35.486Z,94374.16
2019-03-06T18:46:05.106Z,94376.87
2019-03-06T18:48:40.406Z,94379.34
2019-03-06T18:51:09.890Z,94377.58
2019-03-06T18:53:40.333Z,94369.81
2019-03-06T18:56:09.862Z,94370.39
2019-03-06T18:58:39.301Z,94367.24
2019-03-06T19:01:08.849Z,94364.88
2019-03-06T19:03:38.412Z,94363.55
2019-03-06T19:06:07.965Z,94359.38
2019-03-06T19:08:37.574Z,94356.72
2019-03-06T19:11:07.114Z,94363.18
2019-03-06T19:13:36.573Z,94358.34
2019-03-06T19:16:06.192Z,94358.84
2019-03-06T19:18:35.999Z,94352.48
2019-03-06T19:21:05.585Z,94350.06
2019-03-06T19:23:35.138Z,94350.12
2019-03-06T19:26:05.740Z,94353.56
2019-03-06T19:28:35.264Z,94344.00
2019-03-06T19:31:04.815Z,94344.03
2019-03-06T19:33:34.584Z,94343.52
2019-03-06T19:36:04.106Z,94333.11
2019-03-06T19:38:33.649Z,94327.55
2019-03-06T19:41:03.112Z,94323.05
2019-03-06T19:43:33.554Z,94320.92
2019-03-06T19:46:03.104Z,94305.73
2019-03-06T19:48:32.690Z,94297.31
2019-03-06T19:51:02.176Z,94304.43
2019-03-06T19:53:31.690Z,94303.09
2019-03-06T19:56:01.192Z,94294.34
2019-03-06T19:58:30.755Z,94286.36
2019-03-06T20:01:00.255Z,94293.03
2019-03-06T20:03:29.864Z,94290.95
2019-03-06T20:05:59.461Z,94296.22
2019-03-06T20:08:29.097Z,94300.78
2019-03-06T20:10:58.593Z,94299.19
2019-03-06T20:13:28.038Z,94297.86
2019-03-06T20:15:57.546Z,94295.00
2019-03-06T20:18:27.294Z,94291.86
2019-03-06T20:20:56.871Z,94301.75
2019-03-06T20:23:26.333Z,94299.66
2019-03-06T20:25:55.892Z,94298.05
2019-03-06T20:28:25.355Z,94290.88
2019-03-06T20:30:54.837Z,94287.37
2019-03-06T20:33:24.738Z,94283.92
2019-03-06T20:35:54.420Z,94281.30
2019-03-06T20:38:23.870Z,94273.02
2019-03-06T20:40:53.353Z,94273.53
2019-03-06T20:43:22.840Z,94272.77
2019-03-06T20:45:52.343Z,94277.23
2019-03-06T20:48:22.066Z,94270.04
2019-03-06T20:50:51.569Z,94268.47
2019-03-06T20:53:21.031Z,94264.20
2019-03-06T20:55:50.578Z,94259.74
2019-03-06T20:58:20.035Z,94252.80
2019-03-06T21:00:49.619Z,94244.89
2019-03-06T21:03:19.076Z,94255.77
2019-03-06T21:05:48.697Z,94257.85
2019-03-06T21:08:18.634Z,94255.17
2019-03-06T21:10:48.111Z,94244.28
2019-03-06T21:13:17.587Z,94240.47
2019-03-06T21:15:47.077Z,94246.05
2019-03-06T21:18:16.566Z,94252.72
2019-03-06T21:20:46.058Z,94250.28
2019-03-06T21:23:15.781Z,94244.42
2019-03-06T21:25:45.268Z,94232.42
2019-03-06T21:28:14.732Z,94241.21
2019-03-06T21:30:46.164Z,94245.73
2019-03-06T21:33:15.637Z,94240.94
2019-03-06T21:35:47.070Z,94247.89
2019-03-06T21:38:16.620Z,94242.57
2019-03-06T21:40:46.266Z,94238.23
2019-03-06T21:43:15.739Z,94243.51
2019-03-06T21:46:04.492Z,94240.27
2019-03-06T21:48:34.360Z,94239.34
2019-03-06T21:51:05.424Z,94238.00
2019-03-06T21:53:34.952Z,94235.83
2019-03-06T21:56:04.436Z,94235.43
2019-03-06T21:58:33.912Z,94231.14
2019-03-06T22:01:03.342Z,94231.25
2019-03-06T22:03:33.051Z,94234.16
2019-03-06T22:06:02.520Z,94236.84
2019-03-06T22:08:31.923Z,94233.89
2019-03-06T22:11:01.353Z,94226.71
2019-03-06T22:13:31.743Z,94227.24
2019-03-06T22:16:01.197Z,94230.50
2019-03-06T22:18:30.626Z,94226.56
2019-03-06T22:21:00.089Z,94224.65
2019-03-06T22:23:30.436Z,94227.58
2019-03-06T22:25:59.894Z,94219.02
2019-03-06T22:28:29.325Z,94219.00
2019-03-06T22:30:58.942Z,94222.73
2019-03-06T22:33:28.390Z,94216.55
2019-03-06T22:35:57.841Z,94211.47
2019-03-06T22:38:27.273Z,94206.34
2019-03-06T22:40:56.995Z,94201.70
2019-03-06T22:43:26.424Z,94205.64
2019-03-06T22:45:55.859Z,94207.23
2019-03-06T22:48:25.283Z,94204.01
2019-03-06T22:50:54.714Z,94196.02
2019-03-06T22:53:24.159Z,94191.80
2019-03-06T22:55:53.595Z,94185.90
2019-03-06T22:58:23.028Z,94187.31
2019-03-06T23:00:58.789Z,94173.46
2019-03-06T23:03:28.828Z,94159.30
2019-03-06T23:05:58.261Z,94154.45
2019-03-06T23:08:27.688Z,94149.16
2019-03-06T23:10:57.113Z,94148.09
2019-03-06T23:13:26.946Z,94152.66
2019-03-06T23:15:56.373Z,94150.31
2019-03-06T23:18:25.869Z,94143.18
2019-03-06T23:20:55.306Z,94138.13
2019-03-06T23:23:24.736Z,94131.46
2019-03-06T23:25:54.407Z,94130.23
2019-03-06T23:28:23.850Z,94131.86
2019-03-06T23:30:53.270Z,94124.63
2019-03-06T23:33:22.703Z,94131.30
2019-03-06T23:35:52.149Z,94135.48
2019-03-06T23:38:21.587Z,94134.48
2019-03-06T23:40:51.302Z,94133.67
2019-03-06T23:43:20.759Z,94128.44
2019-03-06T23:45:50.191Z,94126.98
2019-03-06T23:48:19.630Z,94129.48
2019-03-06T23:50:49.068Z,94130.77
2019-03-06T23:53:18.503Z,94126.73
2019-03-06T23:55:47.941Z,94121.11
2019-03-06T23:58:17.372Z,94119.16
